sensor_id;sensor_type;location;lat;lon;timestamp;P1;durP1;ratioP1;P2;durP2;ratioP2
63201;SDS011;49296;48.188;11.566;2023-03-23T00:01:21;13.65;;;6.28;;
63201;SDS011;49296;48.188;11.566;2023-03-23T00:03:52;9.50;;;5.18;;
63201;SDS011;49296;48.188;11.566;2023-03-23T00:06:22;10.30;;;5.35;;
63201;SDS011;49296;48.188;11.566;2023-03-23T00:08:52;8.25;;;5.57;;
63201;SDS011;49296;48.188;11.566;2023-03-23T00:11:25;8.55;;;5.47;;
63201;SDS011;49296;48.188;11.566;2023-03-23T00:13:54;9.27;;;5.27;;
63201;SDS011;49296;48.188;11.566;2023-03-23T00:16:26;10.52;;;5.97;;
63201;SDS011;49296;48.188;11.566;2023-03-23T00:18:57;7.80;;;5.18;;
63201;SDS011;49296;48.188;11.566;2023-03-23T00:21:25;9.55;;;5.38;;
63201;SDS011;49296;48.188;11.566;2023-03-23T00:24:00;10.40;;;5.47;;
63201;SDS011;49296;48.188;11.566;2023-03-23T00:26:29;10.60;;;5.72;;
63201;SDS011;49296;48.188;11.566;2023-03-23T00:28:58;9.35;;;5.30;;
63201;SDS011;49296;48.188;11.566;2023-03-23T00:31:26;8.52;;;5.10;;
63201;SDS011;49296;48.188;11.566;2023-03-23T00:33:56;14.63;;;5.13;;
63201;SDS011;49296;48.188;11.566;2023-03-23T00:36:26;9.02;;;5.57;;
63201;SDS011;49296;48.188;11.566;2023-03-23T00:38:54;10.30;;;5.70;;
63201;SDS011;49296;48.188;11.566;2023-03-23T00:41:25;9.30;;;5.50;;
63201;SDS011;49296;48.188;11.566;2023-03-23T00:43:53;9.85;;;6.00;;
63201;SDS011;49296;48.188;11.566;2023-03-23T00:46:21;9.32;;;5.63;;
63201;SDS011;49296;48.188;11.566;2023-03-23T00:48:48;7.88;;;4.70;;
63201;SDS011;49296;48.188;11.566;2023-03-23T00:51:16;8.25;;;5.18;;
63201;SDS011;49296;48.188;11.566;2023-03-23T00:53:44;8.23;;;4.90;;
63201;SDS011;49296;48.188;11.566;2023-03-23T00:56:12;8.80;;;5.15;;
63201;SDS011;49296;48.188;11.566;2023-03-23T00:58:41;8.75;;;5.50;;
63201;SDS011;49296;48.188;11.566;2023-03-23T01:01:08;9.07;;;4.80;;
63201;SDS011;49296;48.188;11.566;2023-03-23T01:03:35;8.63;;;5.03;;
63201;SDS011;49296;48.188;11.566;2023-03-23T01:06:06;7.45;;;4.47;;
63201;SDS011;49296;48.188;11.566;2023-03-23T01:08:38;7.68;;;4.85;;
63201;SDS011;49296;48.188;11.566;2023-03-23T01:11:10;7.38;;;4.43;;
63201;SDS011;49296;48.188;11.566;2023-03-23T01:13:38;9.35;;;3.90;;
63201;SDS011;49296;48.188;11.566;2023-03-23T01:16:07;8.18;;;3.70;;
63201;SDS011;49296;48.188;11.566;2023-03-23T01:18:36;6.30;;;3.40;;
63201;SDS011;49296;48.188;11.566;2023-03-23T01:21:03;5.50;;;3.17;;
63201;SDS011;49296;48.188;11.566;2023-03-23T01:23:31;6.78;;;3.10;;
63201;SDS011;49296;48.188;11.566;2023-03-23T01:26:02;5.57;;;3.00;;
63201;SDS011;49296;48.188;11.566;2023-03-23T01:28:30;6.38;;;3.28;;
63201;SDS011;49296;48.188;11.566;2023-03-23T01:30:59;5.25;;;2.95;;
63201;SDS011;49296;48.188;11.566;2023-03-23T01:33:28;5.30;;;2.80;;
63201;SDS011;49296;48.188;11.566;2023-03-23T01:35:55;5.68;;;3.10;;
63201;SDS011;49296;48.188;11.566;2023-03-23T01:38:22;7.47;;;4.13;;
63201;SDS011;49296;48.188;11.566;2023-03-23T01:40:50;5.72;;;3.30;;
63201;SDS011;49296;48.188;11.566;2023-03-23T01:43:16;6.20;;;3.22;;
63201;SDS011;49296;48.188;11.566;2023-03-23T01:45:43;7.13;;;3.50;;
63201;SDS011;49296;48.188;11.566;2023-03-23T01:48:12;7.38;;;3.88;;
63201;SDS011;49296;48.188;11.566;2023-03-23T01:50:48;6.97;;;3.85;;
63201;SDS011;49296;48.188;11.566;2023-03-23T01:53:18;6.43;;;4.05;;
63201;SDS011;49296;48.188;11.566;2023-03-23T01:55:46;6.97;;;3.92;;
63201;SDS011;49296;48.188;11.566;2023-03-23T01:58:17;4.95;;;3.13;;
63201;SDS011;49296;48.188;11.566;2023-03-23T02:00:50;6.60;;;3.83;;
63201;SDS011;49296;48.188;11.566;2023-03-23T02:03:18;5.82;;;3.17;;
63201;SDS011;49296;48.188;11.566;2023-03-23T02:05:49;8.03;;;3.30;;
63201;SDS011;49296;48.188;11.566;2023-03-23T02:08:17;4.35;;;2.67;;
63201;SDS011;49296;48.188;11.566;2023-03-23T02:10:44;4.82;;;2.80;;
63201;SDS011;49296;48.188;11.566;2023-03-23T02:13:11;6.03;;;3.35;;
63201;SDS011;49296;48.188;11.566;2023-03-23T02:15:42;5.30;;;3.30;;
63201;SDS011;49296;48.188;11.566;2023-03-23T02:18:16;5.95;;;3.25;;
63201;SDS011;49296;48.188;11.566;2023-03-23T02:27:27;8.02;;;4.68;;
63201;SDS011;49296;48.188;11.566;2023-03-23T02:33:10;10.13;;;5.70;;
63201;SDS011;49296;48.188;11.566;2023-03-23T02:35:46;10.15;;;5.47;;
63201;SDS011;49296;48.188;11.566;2023-03-23T02:38:17;8.57;;;4.82;;
63201;SDS011;49296;48.188;11.566;2023-03-23T02:40:51;7.45;;;4.20;;
63201;SDS011;49296;48.188;11.566;2023-03-23T02:43:22;7.45;;;4.75;;
63201;SDS011;49296;48.188;11.566;2023-03-23T02:45:52;7.45;;;4.57;;
63201;SDS011;49296;48.188;11.566;2023-03-23T02:48:22;7.68;;;4.68;;
63201;SDS011;49296;48.188;11.566;2023-03-23T02:50:53;11.10;;;6.13;;
63201;SDS011;49296;48.188;11.566;2023-03-23T02:53:21;9.63;;;5.22;;
63201;SDS011;49296;48.188;11.566;2023-03-23T02:55:50;10.30;;;6.00;;
63201;SDS011;49296;48.188;11.566;2023-03-23T02:58:20;7.95;;;6.13;;
63201;SDS011;49296;48.188;11.566;2023-03-23T03:00:48;9.27;;;5.60;;
63201;SDS011;49296;48.188;11.566;2023-03-23T03:03:16;11.52;;;6.13;;
63201;SDS011;49296;48.188;11.566;2023-03-23T03:05:49;10.60;;;6.95;;
63201;SDS011;49296;48.188;11.566;2023-03-23T03:08:26;8.48;;;6.30;;
63201;SDS011;49296;48.188;11.566;2023-03-23T03:11:02;10.68;;;6.18;;
63201;SDS011;49296;48.188;11.566;2023-03-23T03:13:33;10.98;;;5.75;;
63201;SDS011;49296;48.188;11.566;2023-03-23T03:16:12;9.48;;;6.00;;
63201;SDS011;49296;48.188;11.566;2023-03-23T03:18:47;10.70;;;5.22;;
63201;SDS011;49296;48.188;11.566;2023-03-23T03:21:19;11.35;;;5.65;;
63201;SDS011;49296;48.188;11.566;2023-03-23T03:23:50;10.57;;;4.82;;
63201;SDS011;49296;48.188;11.566;2023-03-23T03:26:21;10.32;;;4.00;;
63201;SDS011;49296;48.188;11.566;2023-03-23T03:28:52;5.85;;;3.10;;
63201;SDS011;49296;48.188;11.566;2023-03-23T03:31:20;7.43;;;3.55;;
63201;SDS011;49296;48.188;11.566;2023-03-23T03:33:50;6.20;;;3.28;;
63201;SDS011;49296;48.188;11.566;2023-03-23T03:36:18;7.60;;;3.47;;
63201;SDS011;49296;48.188;11.566;2023-03-23T03:38:50;6.38;;;3.40;;
63201;SDS011;49296;48.188;11.566;2023-03-23T03:41:18;7.28;;;3.92;;
63201;SDS011;49296;48.188;11.566;2023-03-23T03:43:46;9.90;;;5.05;;
63201;SDS011;49296;48.188;11.566;2023-03-23T03:46:13;11.70;;;5.95;;
63201;SDS011;49296;48.188;11.566;2023-03-23T03:48:39;8.60;;;4.80;;
63201;SDS011;49296;48.188;11.566;2023-03-23T03:51:06;10.00;;;5.22;;
63201;SDS011;49296;48.188;11.566;2023-03-23T03:53:35;11.25;;;6.40;;
63201;SDS011;49296;48.188;11.566;2023-03-23T03:56:02;8.20;;;5.43;;
63201;SDS011;49296;48.188;11.566;2023-03-23T03:58:30;7.50;;;4.47;;
63201;SDS011;49296;48.188;11.566;2023-03-23T04:00:58;7.70;;;5.05;;
63201;SDS011;49296;48.188;11.566;2023-03-23T04:03:25;7.47;;;4.65;;
63201;SDS011;49296;48.188;11.566;2023-03-23T04:05:53;10.50;;;5.55;;
63201;SDS011;49296;48.188;11.566;2023-03-23T04:08:21;9.75;;;5.13;;
63201;SDS011;49296;48.188;11.566;2023-03-23T04:10:49;9.15;;;5.22;;
63201;SDS011;49296;48.188;11.566;2023-03-23T04:13:16;8.57;;;5.55;;
63201;SDS011;49296;48.188;11.566;2023-03-23T04:15:43;8.48;;;4.70;;
63201;SDS011;49296;48.188;11.566;2023-03-23T04:18:11;8.20;;;4.65;;
63201;SDS011;49296;48.188;11.566;2023-03-23T04:20:40;10.27;;;5.65;;
63201;SDS011;49296;48.188;11.566;2023-03-23T04:23:08;9.00;;;5.30;;
63201;SDS011;49296;48.188;11.566;2023-03-23T04:25:35;10.60;;;6.10;;
63201;SDS011;49296;48.188;11.566;2023-03-23T04:28:03;8.73;;;5.22;;
63201;SDS011;49296;48.188;11.566;2023-03-23T04:30:30;15.15;;;7.22;;
63201;SDS011;49296;48.188;11.566;2023-03-23T04:32:57;9.18;;;5.53;;
63201;SDS011;49296;48.188;11.566;2023-03-23T04:35:26;10.18;;;6.07;;
63201;SDS011;49296;48.188;11.566;2023-03-23T04:37:54;9.30;;;6.07;;
63201;SDS011;49296;48.188;11.566;2023-03-23T04:40:22;10.77;;;5.50;;
63201;SDS011;49296;48.188;11.566;2023-03-23T04:42:49;10.43;;;5.72;;
63201;SDS011;49296;48.188;11.566;2023-03-23T04:45:19;9.25;;;5.53;;
63201;SDS011;49296;48.188;11.566;2023-03-23T04:47:47;10.02;;;6.05;;
63201;SDS011;49296;48.188;11.566;2023-03-23T04:52:45;8.15;;;5.35;;
63201;SDS011;49296;48.188;11.566;2023-03-23T04:55:12;8.80;;;5.05;;
63201;SDS011;49296;48.188;11.566;2023-03-23T04:57:40;11.10;;;5.95;;
63201;SDS011;49296;48.188;11.566;2023-03-23T05:00:07;9.77;;;5.28;;
63201;SDS011;49296;48.188;11.566;2023-03-23T05:02:40;7.80;;;5.47;;
63201;SDS011;49296;48.188;11.566;2023-03-23T05:05:07;12.15;;;5.93;;
63201;SDS011;49296;48.188;11.566;2023-03-23T05:07:36;10.02;;;5.70;;
63201;SDS011;49296;48.188;11.566;2023-03-23T05:10:03;8.63;;;5.55;;
63201;SDS011;49296;48.188;11.566;2023-03-23T05:12:31;10.02;;;5.97;;
63201;SDS011;49296;48.188;11.566;2023-03-23T05:14:58;9.55;;;5.47;;
63201;SDS011;49296;48.188;11.566;2023-03-23T05:17:25;10.25;;;6.00;;
63201;SDS011;49296;48.188;11.566;2023-03-23T05:19:53;8.63;;;4.80;;
63201;SDS011;49296;48.188;11.566;2023-03-23T05:22:21;9.20;;;5.20;;
63201;SDS011;49296;48.188;11.566;2023-03-23T05:24:48;8.00;;;5.35;;
63201;SDS011;49296;48.188;11.566;2023-03-23T05:27:17;11.25;;;5.88;;
63201;SDS011;49296;48.188;11.566;2023-03-23T05:29:45;9.52;;;5.78;;
63201;SDS011;49296;48.188;11.566;2023-03-23T05:32:16;11.27;;;6.70;;
63201;SDS011;49296;48.188;11.566;2023-03-23T05:34:44;8.52;;;5.13;;
63201;SDS011;49296;48.188;11.566;2023-03-23T05:37:12;9.88;;;6.05;;
63201;SDS011;49296;48.188;11.566;2023-03-23T05:39:39;10.10;;;5.53;;
63201;SDS011;49296;48.188;11.566;2023-03-23T05:42:06;8.95;;;5.22;;
63201;SDS011;49296;48.188;11.566;2023-03-23T05:44:33;7.32;;;4.50;;
63201;SDS011;49296;48.188;11.566;2023-03-23T05:47:00;9.48;;;5.03;;
63201;SDS011;49296;48.188;11.566;2023-03-23T05:49:28;10.60;;;5.85;;
63201;SDS011;49296;48.188;11.566;2023-03-23T05:51:55;9.52;;;6.18;;
63201;SDS011;49296;48.188;11.566;2023-03-23T05:54:23;7.72;;;4.07;;
63201;SDS011;49296;48.188;11.566;2023-03-23T05:56:50;8.15;;;3.30;;
63201;SDS011;49296;48.188;11.566;2023-03-23T05:59:17;7.28;;;3.60;;
63201;SDS011;49296;48.188;11.566;2023-03-23T06:01:44;5.70;;;2.97;;
63201;SDS011;49296;48.188;11.566;2023-03-23T06:04:11;6.85;;;3.45;;
63201;SDS011;49296;48.188;11.566;2023-03-23T06:06:38;8.13;;;3.33;;
63201;SDS011;49296;48.188;11.566;2023-03-23T06:09:06;7.07;;;3.42;;
63201;SDS011;49296;48.188;11.566;2023-03-23T06:11:35;8.05;;;4.05;;
63201;SDS011;49296;48.188;11.566;2023-03-23T06:14:01;9.63;;;4.30;;
63201;SDS011;49296;48.188;11.566;2023-03-23T06:16:29;8.05;;;3.70;;
63201;SDS011;49296;48.188;11.566;2023-03-23T06:18:56;6.85;;;3.63;;
63201;SDS011;49296;48.188;11.566;2023-03-23T06:21:25;8.35;;;4.00;;
63201;SDS011;49296;48.188;11.566;2023-03-23T06:23:53;6.35;;;3.65;;
63201;SDS011;49296;48.188;11.566;2023-03-23T06:26:21;8.15;;;3.55;;
63201;SDS011;49296;48.188;11.566;2023-03-23T06:28:53;9.45;;;4.70;;
63201;SDS011;49296;48.188;11.566;2023-03-23T06:31:21;7.07;;;3.92;;
63201;SDS011;49296;48.188;11.566;2023-03-23T06:33:48;8.02;;;4.97;;
63201;SDS011;49296;48.188;11.566;2023-03-23T06:36:15;6.65;;;3.90;;
63201;SDS011;49296;48.188;11.566;2023-03-23T06:38:42;9.40;;;5.22;;
63201;SDS011;49296;48.188;11.566;2023-03-23T06:41:10;12.63;;;5.28;;
63201;SDS011;49296;48.188;11.566;2023-03-23T06:43:37;10.35;;;4.70;;
63201;SDS011;49296;48.188;11.566;2023-03-23T06:46:06;7.90;;;4.70;;
63201;SDS011;49296;48.188;11.566;2023-03-23T06:48:33;6.88;;;3.95;;
63201;SDS011;49296;48.188;11.566;2023-03-23T06:51:00;6.47;;;3.55;;
63201;SDS011;49296;48.188;11.566;2023-03-23T06:53:27;9.57;;;3.83;;
63201;SDS011;49296;48.188;11.566;2023-03-23T06:55:54;7.32;;;4.03;;
63201;SDS011;49296;48.188;11.566;2023-03-23T06:58:21;6.63;;;3.90;;
63201;SDS011;49296;48.188;11.566;2023-03-23T07:00:49;7.03;;;3.80;;
63201;SDS011;49296;48.188;11.566;2023-03-23T07:03:21;7.55;;;3.80;;
63201;SDS011;49296;48.188;11.566;2023-03-23T07:05:48;10.43;;;4.22;;
63201;SDS011;49296;48.188;11.566;2023-03-23T07:08:15;5.68;;;3.55;;
63201;SDS011;49296;48.188;11.566;2023-03-23T07:10:42;7.60;;;4.45;;
63201;SDS011;49296;48.188;11.566;2023-03-23T07:13:09;7.38;;;3.60;;
63201;SDS011;49296;48.188;11.566;2023-03-23T07:15:36;8.98;;;4.43;;
63201;SDS011;49296;48.188;11.566;2023-03-23T07:18:03;8.73;;;3.88;;
63201;SDS011;49296;48.188;11.566;2023-03-23T07:20:31;7.38;;;3.90;;
63201;SDS011;49296;48.188;11.566;2023-03-23T07:22:58;8.77;;;4.55;;
63201;SDS011;49296;48.188;11.566;2023-03-23T07:25:26;7.35;;;3.75;;
63201;SDS011;49296;48.188;11.566;2023-03-23T07:27:53;5.97;;;3.40;;
63201;SDS011;49296;48.188;11.566;2023-03-23T07:30:20;6.60;;;3.95;;
63201;SDS011;49296;48.188;11.566;2023-03-23T07:32:47;7.43;;;4.60;;
63201;SDS011;49296;48.188;11.566;2023-03-23T07:35:14;6.68;;;3.60;;
63201;SDS011;49296;48.188;11.566;2023-03-23T07:37:42;6.15;;;3.53;;
63201;SDS011;49296;48.188;11.566;2023-03-23T07:40:10;9.43;;;3.50;;
63201;SDS011;49296;48.188;11.566;2023-03-23T07:42:41;10.13;;;3.53;;
63201;SDS011;49296;48.188;11.566;2023-03-23T07:45:09;7.35;;;3.80;;
63201;SDS011;49296;48.188;11.566;2023-03-23T07:47:36;10.63;;;3.50;;
63201;SDS011;49296;48.188;11.566;2023-03-23T07:50:04;5.43;;;3.33;;
63201;SDS011;49296;48.188;11.566;2023-03-23T07:52:32;7.28;;;3.90;;
63201;SDS011;49296;48.188;11.566;2023-03-23T07:55:00;6.60;;;3.78;;
63201;SDS011;49296;48.188;11.566;2023-03-23T07:57:28;6.82;;;3.58;;
63201;SDS011;49296;48.188;11.566;2023-03-23T07:59:55;10.48;;;4.00;;
63201;SDS011;49296;48.188;11.566;2023-03-23T08:02:23;9.73;;;3.83;;
63201;SDS011;49296;48.188;11.566;2023-03-23T08:04:50;7.32;;;3.78;;
63201;SDS011;49296;48.188;11.566;2023-03-23T08:07:18;6.80;;;3.30;;
63201;SDS011;49296;48.188;11.566;2023-03-23T08:09:46;6.82;;;3.60;;
63201;SDS011;49296;48.188;11.566;2023-03-23T08:12:14;7.47;;;3.67;;
63201;SDS011;49296;48.188;11.566;2023-03-23T08:14:41;5.65;;;3.22;;
63201;SDS011;49296;48.188;11.566;2023-03-23T08:17:08;7.88;;;3.72;;
63201;SDS011;49296;48.188;11.566;2023-03-23T08:19:35;7.18;;;3.60;;
63201;SDS011;49296;48.188;11.566;2023-03-23T08:22:02;6.72;;;3.45;;
63201;SDS011;49296;48.188;11.566;2023-03-23T08:24:30;7.50;;;3.17;;
63201;SDS011;49296;48.188;11.566;2023-03-23T08:26:57;7.93;;;3.83;;
63201;SDS011;49296;48.188;11.566;2023-03-23T08:29:26;7.05;;;3.40;;
63201;SDS011;49296;48.188;11.566;2023-03-23T08:31:53;7.45;;;4.13;;
63201;SDS011;49296;48.188;11.566;2023-03-23T08:34:20;8.98;;;3.15;;
63201;SDS011;49296;48.188;11.566;2023-03-23T08:36:48;6.03;;;3.42;;
63201;SDS011;49296;48.188;11.566;2023-03-23T08:39:16;7.78;;;3.63;;
63201;SDS011;49296;48.188;11.566;2023-03-23T08:41:44;12.45;;;4.53;;
63201;SDS011;49296;48.188;11.566;2023-03-23T08:44:10;7.53;;;4.47;;
63201;SDS011;49296;48.188;11.566;2023-03-23T08:46:39;8.38;;;3.92;;
63201;SDS011;49296;48.188;11.566;2023-03-23T08:49:06;6.03;;;3.47;;
63201;SDS011;49296;48.188;11.566;2023-03-23T08:51:33;7.07;;;3.65;;
63201;SDS011;49296;48.188;11.566;2023-03-23T08:54:01;8.85;;;3.88;;
63201;SDS011;49296;48.188;11.566;2023-03-23T08:56:28;8.88;;;3.72;;
63201;SDS011;49296;48.188;11.566;2023-03-23T08:58:54;6.82;;;4.00;;
63201;SDS011;49296;48.188;11.566;2023-03-23T09:01:21;11.05;;;4.85;;
63201;SDS011;49296;48.188;11.566;2023-03-23T09:03:50;9.50;;;4.90;;
63201;SDS011;49296;48.188;11.566;2023-03-23T09:06:17;7.63;;;4.00;;
63201;SDS011;49296;48.188;11.566;2023-03-23T09:08:44;9.20;;;4.15;;
63201;SDS011;49296;48.188;11.566;2023-03-23T09:11:11;13.95;;;4.03;;
63201;SDS011;49296;48.188;11.566;2023-03-23T09:13:38;5.72;;;3.13;;
63201;SDS011;49296;48.188;11.566;2023-03-23T09:16:06;5.60;;;2.97;;
63201;SDS011;49296;48.188;11.566;2023-03-23T09:18:34;7.30;;;3.50;;
63201;SDS011;49296;48.188;11.566;2023-03-23T09:21:03;6.22;;;3.35;;
63201;SDS011;49296;48.188;11.566;2023-03-23T09:23:30;5.65;;;3.17;;
63201;SDS011;49296;48.188;11.566;2023-03-23T09:25:59;5.43;;;3.08;;
63201;SDS011;49296;48.188;11.566;2023-03-23T09:28:27;7.47;;;3.15;;
63201;SDS011;49296;48.188;11.566;2023-03-23T09:30:54;6.60;;;3.20;;
63201;SDS011;49296;48.188;11.566;2023-03-23T09:33:24;5.85;;;3.10;;
63201;SDS011;49296;48.188;11.566;2023-03-23T09:35:51;5.90;;;2.72;;
63201;SDS011;49296;48.188;11.566;2023-03-23T09:38:19;4.63;;;2.85;;
63201;SDS011;49296;48.188;11.566;2023-03-23T09:40:47;5.90;;;2.53;;
63201;SDS011;49296;48.188;11.566;2023-03-23T09:43:24;5.35;;;2.80;;
63201;SDS011;49296;48.188;11.566;2023-03-23T09:46:04;6.03;;;3.00;;
63201;SDS011;49296;48.188;11.566;2023-03-23T09:48:45;6.60;;;3.25;;
63201;SDS011;49296;48.188;11.566;2023-03-23T09:51:19;6.82;;;3.13;;
63201;SDS011;49296;48.188;11.566;2023-03-23T09:53:57;7.97;;;3.35;;
63201;SDS011;49296;48.188;11.566;2023-03-23T09:56:28;6.05;;;3.35;;
63201;SDS011;49296;48.188;11.566;2023-03-23T09:59:00;6.28;;;3.35;;
63201;SDS011;49296;48.188;11.566;2023-03-23T10:01:32;6.40;;;3.65;;
63201;SDS011;49296;48.188;11.566;2023-03-23T10:04:03;5.75;;;3.22;;
63201;SDS011;49296;48.188;11.566;2023-03-23T10:06:36;6.80;;;4.22;;
63201;SDS011;49296;48.188;11.566;2023-03-23T10:09:05;6.20;;;3.50;;
63201;SDS011;49296;48.188;11.566;2023-03-23T10:11:36;10.18;;;3.60;;
63201;SDS011;49296;48.188;11.566;2023-03-23T10:17:00;5.82;;;3.35;;
63201;SDS011;49296;48.188;11.566;2023-03-23T10:19:35;6.53;;;3.03;;
63201;SDS011;49296;48.188;11.566;2023-03-23T10:22:09;4.60;;;2.95;;
63201;SDS011;49296;48.188;11.566;2023-03-23T10:24:40;7.97;;;3.47;;
63201;SDS011;49296;48.188;11.566;2023-03-23T10:27:16;5.57;;;3.20;;
63201;SDS011;49296;48.188;11.566;2023-03-23T10:29:50;6.75;;;4.18;;
63201;SDS011;49296;48.188;11.566;2023-03-23T10:32:21;7.65;;;3.30;;
63201;SDS011;49296;48.188;11.566;2023-03-23T10:35:06;5.60;;;3.05;;
63201;SDS011;49296;48.188;11.566;2023-03-23T10:37:41;8.55;;;3.58;;
63201;SDS011;49296;48.188;11.566;2023-03-23T10:40:14;5.20;;;3.03;;
63201;SDS011;49296;48.188;11.566;2023-03-23T10:42:43;5.93;;;2.90;;
63201;SDS011;49296;48.188;11.566;2023-03-23T10:45:12;5.82;;;2.97;;
63201;SDS011;49296;48.188;11.566;2023-03-23T10:47:55;5.55;;;3.35;;
63201;SDS011;49296;48.188;11.566;2023-03-23T10:50:30;4.95;;;2.63;;
63201;SDS011;49296;48.188;11.566;2023-03-23T10:52:59;7.22;;;3.65;;
63201;SDS011;49296;48.188;11.566;2023-03-23T10:55:36;7.80;;;3.53;;
63201;SDS011;49296;48.188;11.566;2023-03-23T10:58:05;5.85;;;3.17;;
63201;SDS011;49296;48.188;11.566;2023-03-23T11:00:33;5.95;;;3.30;;
63201;SDS011;49296;48.188;11.566;2023-03-23T11:03:18;4.68;;;2.97;;
63201;SDS011;49296;48.188;11.566;2023-03-23T11:05:52;7.18;;;3.70;;
63201;SDS011;49296;48.188;11.566;2023-03-23T11:08:22;5.78;;;3.50;;
63201;SDS011;49296;48.188;11.566;2023-03-23T11:10:53;6.72;;;3.80;;
63201;SDS011;49296;48.188;11.566;2023-03-23T11:13:27;7.65;;;3.30;;
63201;SDS011;49296;48.188;11.566;2023-03-23T11:15:58;6.47;;;3.20;;
63201;SDS011;49296;48.188;11.566;2023-03-23T11:18:27;6.45;;;3.53;;
63201;SDS011;49296;48.188;11.566;2023-03-23T11:21:02;7.28;;;4.63;;
63201;SDS011;49296;48.188;11.566;2023-03-23T11:23:32;7.03;;;3.97;;
63201;SDS011;49296;48.188;11.566;2023-03-23T11:28:34;6.97;;;4.30;;
63201;SDS011;49296;48.188;11.566;2023-03-23T11:31:04;6.78;;;3.60;;
63201;SDS011;49296;48.188;11.566;2023-03-23T11:33:35;7.70;;;3.67;;
63201;SDS011;49296;48.188;11.566;2023-03-23T11:36:05;6.00;;;3.75;;
63201;SDS011;49296;48.188;11.566;2023-03-23T11:38:33;8.40;;;4.03;;
63201;SDS011;49296;48.188;11.566;2023-03-23T11:41:01;6.82;;;3.72;;
63201;SDS011;49296;48.188;11.566;2023-03-23T11:43:44;5.75;;;3.63;;
63201;SDS011;49296;48.188;11.566;2023-03-23T11:46:15;8.23;;;3.72;;
63201;SDS011;49296;48.188;11.566;2023-03-23T11:48:49;6.88;;;3.72;;
63201;SDS011;49296;48.188;11.566;2023-03-23T11:51:20;6.90;;;3.70;;
63201;SDS011;49296;48.188;11.566;2023-03-23T11:53:54;9.13;;;3.70;;
63201;SDS011;49296;48.188;11.566;2023-03-23T11:56:27;8.05;;;3.75;;
63201;SDS011;49296;48.188;11.566;2023-03-23T11:58:56;7.40;;;3.67;;
63201;SDS011;49296;48.188;11.566;2023-03-23T12:01:32;6.70;;;3.72;;
63201;SDS011;49296;48.188;11.566;2023-03-23T12:04:33;5.85;;;3.60;;
63201;SDS011;49296;48.188;11.566;2023-03-23T12:07:12;8.93;;;4.15;;
63201;SDS011;49296;48.188;11.566;2023-03-23T12:09:47;8.23;;;4.63;;
63201;SDS011;49296;48.188;11.566;2023-03-23T12:12:24;7.47;;;4.05;;
63201;SDS011;49296;48.188;11.566;2023-03-23T12:15:00;8.68;;;3.95;;
63201;SDS011;49296;48.188;11.566;2023-03-23T12:17:37;8.23;;;3.70;;
63201;SDS011;49296;48.188;11.566;2023-03-23T12:22:50;8.73;;;4.32;;
63201;SDS011;49296;48.188;11.566;2023-03-23T12:28:14;8.65;;;4.25;;
63201;SDS011;49296;48.188;11.566;2023-03-23T12:30:49;7.18;;;3.97;;
63201;SDS011;49296;48.188;11.566;2023-03-23T12:33:24;7.22;;;4.20;;
63201;SDS011;49296;48.188;11.566;2023-03-23T12:36:03;8.23;;;4.35;;
63201;SDS011;49296;48.188;11.566;2023-03-23T12:38:52;8.85;;;4.47;;
63201;SDS011;49296;48.188;11.566;2023-03-23T12:41:35;7.03;;;3.78;;
63201;SDS011;49296;48.188;11.566;2023-03-23T12:44:09;7.22;;;3.78;;
63201;SDS011;49296;48.188;11.566;2023-03-23T12:46:42;7.18;;;3.88;;
63201;SDS011;49296;48.188;11.566;2023-03-23T12:49:17;5.90;;;3.30;;
63201;SDS011;49296;48.188;11.566;2023-03-23T12:51:49;6.10;;;3.30;;
63201;SDS011;49296;48.188;11.566;2023-03-23T12:54:23;6.25;;;3.30;;
63201;SDS011;49296;48.188;11.566;2023-03-23T12:56:58;5.85;;;3.20;;
63201;SDS011;49296;48.188;11.566;2023-03-23T12:59:33;8.35;;;4.15;;
63201;SDS011;49296;48.188;11.566;2023-03-23T13:02:10;6.65;;;3.50;;
63201;SDS011;49296;48.188;11.566;2023-03-23T13:04:41;7.05;;;3.33;;
63201;SDS011;49296;48.188;11.566;2023-03-23T13:07:13;5.38;;;3.17;;
63201;SDS011;49296;48.188;11.566;2023-03-23T13:09:46;5.65;;;3.22;;
63201;SDS011;49296;48.188;11.566;2023-03-23T13:12:18;7.38;;;4.00;;
63201;SDS011;49296;48.188;11.566;2023-03-23T13:14:50;6.40;;;2.80;;
63201;SDS011;49296;48.188;11.566;2023-03-23T13:17:28;7.03;;;2.60;;
63201;SDS011;49296;48.188;11.566;2023-03-23T13:20:13;5.43;;;2.47;;
63201;SDS011;49296;48.188;11.566;2023-03-23T13:22:50;6.72;;;2.88;;
63201;SDS011;49296;48.188;11.566;2023-03-23T13:25:24;6.45;;;3.20;;
63201;SDS011;49296;48.188;11.566;2023-03-23T13:27:59;4.85;;;3.03;;
63201;SDS011;49296;48.188;11.566;2023-03-23T13:30:28;5.60;;;2.90;;
63201;SDS011;49296;48.188;11.566;2023-03-23T13:33:01;7.93;;;2.67;;
63201;SDS011;49296;48.188;11.566;2023-03-23T13:35:33;5.15;;;2.40;;
63201;SDS011;49296;48.188;11.566;2023-03-23T13:38:10;5.65;;;3.03;;
63201;SDS011;49296;48.188;11.566;2023-03-23T13:40:42;6.18;;;2.75;;
63201;SDS011;49296;48.188;11.566;2023-03-23T13:43:11;5.78;;;2.53;;
63201;SDS011;49296;48.188;11.566;2023-03-23T13:45:44;4.70;;;2.70;;
63201;SDS011;49296;48.188;11.566;2023-03-23T13:48:20;6.13;;;2.40;;
63201;SDS011;49296;48.188;11.566;2023-03-23T13:50:55;5.18;;;3.00;;
63201;SDS011;49296;48.188;11.566;2023-03-23T13:53:24;7.25;;;3.00;;
63201;SDS011;49296;48.188;11.566;2023-03-23T13:56:05;6.30;;;2.72;;
63201;SDS011;49296;48.188;11.566;2023-03-23T13:58:44;7.63;;;2.60;;
63201;SDS011;49296;48.188;11.566;2023-03-23T14:01:15;4.65;;;2.40;;
63201;SDS011;49296;48.188;11.566;2023-03-23T14:03:45;4.32;;;2.40;;
63201;SDS011;49296;48.188;11.566;2023-03-23T14:06:16;6.40;;;3.17;;
63201;SDS011;49296;48.188;11.566;2023-03-23T14:08:46;7.35;;;2.90;;
63201;SDS011;49296;48.188;11.566;2023-03-23T14:11:17;4.75;;;2.60;;
63201;SDS011;49296;48.188;11.566;2023-03-23T14:16:19;5.90;;;2.50;;
63201;SDS011;49296;48.188;11.566;2023-03-23T14:21:21;6.63;;;2.55;;
63201;SDS011;49296;48.188;11.566;2023-03-23T14:23:50;6.82;;;2.50;;
63201;SDS011;49296;48.188;11.566;2023-03-23T14:26:20;5.53;;;2.40;;
63201;SDS011;49296;48.188;11.566;2023-03-23T14:28:49;4.00;;;2.05;;
63201;SDS011;49296;48.188;11.566;2023-03-23T14:31:19;5.47;;;2.33;;
63201;SDS011;49296;48.188;11.566;2023-03-23T14:33:48;4.78;;;2.30;;
63201;SDS011;49296;48.188;11.566;2023-03-23T14:36:19;7.55;;;2.33;;
63201;SDS011;49296;48.188;11.566;2023-03-23T14:38:48;6.10;;;2.35;;
63201;SDS011;49296;48.188;11.566;2023-03-23T14:41:21;5.00;;;2.35;;
63201;SDS011;49296;48.188;11.566;2023-03-23T14:43:49;4.80;;;2.45;;
63201;SDS011;49296;48.188;11.566;2023-03-23T14:46:16;5.47;;;2.40;;
63201;SDS011;49296;48.188;11.566;2023-03-23T14:48:45;4.38;;;2.40;;
63201;SDS011;49296;48.188;11.566;2023-03-23T14:51:16;4.72;;;2.03;;
63201;SDS011;49296;48.188;11.566;2023-03-23T14:53:45;3.80;;;2.17;;
63201;SDS011;49296;48.188;11.566;2023-03-23T14:56:13;4.30;;;2.22;;
63201;SDS011;49296;48.188;11.566;2023-03-23T14:58:43;4.97;;;2.70;;
63201;SDS011;49296;48.188;11.566;2023-03-23T15:01:12;5.20;;;2.30;;
63201;SDS011;49296;48.188;11.566;2023-03-23T15:03:45;6.30;;;4.43;;
63201;SDS011;49296;48.188;11.566;2023-03-23T15:06:17;5.40;;;2.40;;
63201;SDS011;49296;48.188;11.566;2023-03-23T15:08:47;5.00;;;2.47;;
63201;SDS011;49296;48.188;11.566;2023-03-23T15:11:21;6.20;;;2.78;;
63201;SDS011;49296;48.188;11.566;2023-03-23T15:13:52;6.25;;;2.78;;
63201;SDS011;49296;48.188;11.566;2023-03-23T15:16:23;4.88;;;2.63;;
63201;SDS011;49296;48.188;11.566;2023-03-23T15:18:54;5.32;;;3.13;;